createdAt,value
2023-02-07T00:00:14.465Z,41.20
2023-02-07T00:01:14.458Z,38.40
2023-02-07T00:02:14.489Z,39.80
2023-02-07T00:03:14.456Z,39.30
2023-02-07T00:04:14.393Z,37.90
2023-02-07T00:05:14.414Z,38.00
2023-02-07T00:06:14.387Z,38.80
2023-02-07T00:07:14.377Z,38.80
2023-02-07T00:08:14.388Z,37.80
2023-02-07T00:09:14.357Z,39.40
2023-02-07T00:10:14.343Z,40.00
2023-02-07T00:11:14.308Z,38.90
2023-02-07T00:12:14.312Z,41.30
2023-02-07T00:13:14.294Z,40.00
2023-02-07T00:14:14.268Z,40.30
2023-02-07T00:15:14.298Z,40.70
2023-02-07T00:16:14.317Z,40.80
2023-02-07T00:17:14.265Z,39.70
2023-02-07T00:18:15.173Z,39.60
2023-02-07T00:19:14.216Z,39.50
2023-02-07T00:20:14.194Z,41.30
2023-02-07T00:21:14.225Z,40.80
2023-02-07T00:22:14.547Z,40.50
2023-02-07T00:23:14.167Z,41.20
2023-02-07T00:24:14.146Z,41.00
2023-02-07T00:25:14.145Z,42.80
2023-02-07T00:26:14.127Z,46.30
2023-02-07T00:27:14.129Z,43.30
2023-02-07T00:28:14.161Z,45.20
2023-02-07T00:29:14.114Z,42.80
2023-02-07T00:30:14.098Z,43.70
2023-02-07T00:31:14.203Z,44.00
2023-02-07T00:32:14.095Z,43.10
2023-02-07T00:33:14.060Z,43.40
2023-02-07T00:34:14.084Z,43.90
2023-02-07T00:35:14.013Z,40.90
2023-02-07T00:36:14.012Z,41.00
2023-02-07T00:37:14.023Z,42.70
2023-02-07T00:38:14.088Z,43.10
2023-02-07T00:39:14.001Z,41.60
2023-02-07T00:40:13.943Z,40.20
2023-02-07T00:41:13.959Z,40.70
2023-02-07T00:42:13.945Z,40.90
2023-02-07T00:43:28.153Z,40.10
2023-02-07T00:44:14.908Z,41.30
2023-02-07T00:45:13.911Z,42.20
2023-02-07T00:46:13.922Z,42.10
2023-02-07T00:47:13.871Z,39.90
2023-02-07T00:48:13.851Z,39.40
2023-02-07T00:49:13.855Z,39.50
2023-02-07T00:50:13.850Z,41.60
2023-02-07T00:51:13.842Z,41.20
2023-02-07T00:52:13.812Z,42.10
2023-02-07T00:53:13.802Z,41.20
2023-02-07T00:54:13.792Z,39.40
2023-02-07T00:55:14.036Z,41.30
2023-02-07T00:56:13.774Z,40.90
2023-02-07T00:57:13.762Z,42.70
2023-02-07T00:58:13.730Z,40.40
2023-02-07T00:59:13.721Z,42.90
2023-02-07T01:00:13.701Z,42.40
2023-02-07T01:01:13.721Z,41.00
2023-02-07T01:02:13.944Z,42.40
2023-02-07T01:03:13.693Z,42.80
2023-02-07T01:04:13.658Z,41.90
2023-02-07T01:05:13.649Z,40.90
2023-02-07T01:06:13.633Z,40.00
2023-02-07T01:07:13.634Z,42.80
2023-02-07T01:08:13.607Z,42.10
2023-02-07T01:09:13.602Z,40.80
2023-02-07T01:10:13.584Z,42.10
2023-02-07T01:11:13.579Z,41.90
2023-02-07T01:12:13.582Z,41.30
2023-02-07T01:13:14.506Z,41.80
2023-02-07T01:14:13.543Z,41.60
2023-02-07T01:15:13.533Z,41.90
2023-02-07T01:16:13.564Z,41.00
2023-02-07T01:17:13.498Z,41.10
2023-02-07T01:18:13.514Z,42.20
2023-02-07T01:19:13.848Z,42.30
2023-02-07T01:20:13.470Z,42.50
2023-02-07T01:21:14.269Z,42.30
2023-02-07T01:22:13.437Z,39.50
2023-02-07T01:23:13.482Z,38.70
2023-02-07T01:24:13.437Z,40.30
2023-02-07T01:25:13.433Z,42.00
2023-02-07T01:26:13.392Z,39.50
2023-02-07T01:27:13.686Z,40.70
2023-02-07T01:28:13.386Z,41.40
2023-02-07T01:29:13.363Z,41.20
2023-02-07T01:30:13.358Z,41.90
2023-02-07T01:31:13.396Z,41.20
2023-02-07T01:32:13.319Z,41.00
2023-02-07T01:33:13.327Z,39.50
2023-02-07T01:34:13.298Z,38.80
2023-02-07T01:35:13.290Z,41.90
2023-02-07T01:36:13.289Z,40.20
2023-02-07T01:37:13.258Z,40.40
2023-02-07T01:38:13.518Z,42.10
2023-02-07T01:39:13.239Z,40.90
2023-02-07T01:40:13.219Z,43.30
2023-02-07T01:41:13.211Z,41.70
2023-02-07T01:42:13.187Z,41.50
2023-02-07T01:43:13.204Z,40.40
2023-02-07T01:44:13.161Z,40.50
2023-02-07T01:45:13.184Z,42.80
2023-02-07T01:46:13.152Z,41.70
2023-02-07T01:47:13.136Z,40.60
2023-02-07T01:48:13.120Z,41.10
2023-02-07T01:49:13.130Z,40.40
2023-02-07T01:50:13.088Z,41.20
2023-02-07T01:51:13.093Z,40.00
2023-02-07T01:52:13.056Z,40.80
2023-02-07T01:53:13.070Z,40.20
2023-02-07T01:54:13.036Z,41.00
2023-02-07T01:55:13.038Z,39.90
2023-02-07T01:56:22.731Z,40.70
2023-02-07T01:57:14.025Z,41.20
2023-02-07T01:58:13.018Z,42.90
2023-02-07T01:59:12.991Z,42.40
2023-02-07T02:00:14.100Z,40.60
2023-02-07T02:01:12.986Z,40.00
2023-02-07T02:02:12.998Z,41.70
2023-02-07T02:03:12.944Z,42.00
2023-02-07T02:04:12.911Z,39.60
2023-02-07T02:05:12.908Z,40.50
2023-02-07T02:06:12.897Z,40.90
2023-02-07T02:07:12.875Z,39.40
2023-02-07T02:08:12.869Z,42.40
2023-02-07T02:09:12.862Z,40.80
2023-02-07T02:10:12.857Z,42.20
2023-02-07T02:11:12.825Z,40.00
2023-02-07T02:12:12.822Z,41.10
2023-02-07T02:13:12.826Z,41.00
2023-02-07T02:14:12.807Z,39.50
2023-02-07T02:15:12.795Z,41.40
2023-02-07T02:16:12.859Z,43.80
2023-02-07T02:17:12.758Z,43.00
2023-02-07T02:18:12.762Z,41.70
2023-02-07T02:19:12.743Z,40.10
2023-02-07T02:20:12.716Z,39.10
2023-02-07T02:21:12.717Z,39.90
2023-02-07T02:22:12.708Z,39.80
2023-02-07T02:23:12.708Z,39.80
2023-02-07T02:24:12.672Z,39.60
2023-02-07T02:25:12.676Z,38.50
2023-02-07T02:26:12.638Z,39.60
2023-02-07T02:27:12.639Z,40.60
2023-02-07T02:28:12.654Z,38.50
2023-02-07T02:29:12.610Z,40.60
2023-02-07T02:30:12.595Z,40.90
2023-02-07T02:31:12.640Z,39.70
2023-02-07T02:32:12.598Z,40.80
2023-02-07T02:33:12.583Z,42.70
2023-02-07T02:34:12.562Z,42.40
2023-02-07T02:35:12.545Z,40.70
2023-02-07T02:36:12.517Z,41.60
2023-02-07T02:37:12.534Z,41.10
2023-02-07T02:38:12.522Z,41.30
2023-02-07T02:39:12.498Z,43.40
2023-02-07T02:40:12.471Z,44.60
2023-02-07T02:41:12.458Z,42.00
2023-02-07T02:42:12.447Z,42.40
2023-02-07T02:43:12.449Z,41.20
2023-02-07T02:44:12.422Z,42.00
2023-02-07T02:45:12.409Z,44.40
2023-02-07T02:46:12.425Z,43.10
2023-02-07T02:47:12.397Z,42.90
2023-02-07T02:48:12.383Z,45.20
2023-02-07T02:49:12.372Z,44.00
2023-02-07T02:50:12.350Z,45.20
2023-02-07T02:51:12.352Z,44.60
2023-02-07T02:52:12.355Z,43.20
2023-02-07T02:53:12.329Z,42.40
2023-02-07T02:54:12.302Z,45.40
2023-02-07T02:55:12.308Z,44.20
2023-02-07T02:56:12.287Z,45.40
2023-02-07T02:57:12.272Z,46.80
2023-02-07T02:58:12.269Z,46.10
2023-02-07T02:59:12.251Z,45.40
2023-02-07T03:00:12.262Z,45.70
2023-02-07T03:01:12.223Z,49.80
2023-02-07T03:02:12.221Z,50.80
2023-02-07T03:03:12.204Z,51.50
2023-02-07T03:04:12.185Z,56.20
2023-02-07T03:05:12.197Z,59.80
2023-02-07T03:06:12.171Z,59.40
2023-02-07T03:07:12.155Z,62.10
2023-02-07T03:08:12.147Z,58.50
2023-02-07T03:09:12.117Z,56.90
2023-02-07T03:10:12.107Z,58.80
2023-02-07T03:11:12.103Z,58.00
2023-02-07T03:12:12.085Z,58.50
2023-02-07T03:13:12.083Z,57.90
2023-02-07T03:14:12.064Z,58.60
2023-02-07T03:15:12.054Z,57.60
2023-02-07T03:16:12.052Z,57.70
2023-02-07T03:17:12.024Z,57.30
2023-02-07T03:18:12.025Z,56.90
2023-02-07T03:19:12.010Z,57.70
2023-02-07T03:20:11.998Z,59.90
2023-02-07T03:21:11.973Z,58.70
2023-02-07T03:22:11.957Z,57.60
2023-02-07T03:23:11.956Z,57.00
2023-02-07T03:24:11.938Z,59.00
2023-02-07T03:25:11.928Z,57.70
2023-02-07T03:26:11.905Z,57.10
2023-02-07T03:27:11.894Z,58.90
2023-02-07T03:28:11.936Z,57.60
2023-02-07T03:29:11.882Z,57.30
2023-02-07T03:30:11.862Z,57.10
2023-02-07T03:31:11.863Z,58.20
2023-02-07T03:32:11.845Z,56.70
2023-02-07T03:33:11.957Z,57.80
2023-02-07T03:34:11.806Z,56.60
2023-02-07T03:35:11.797Z,56.80
2023-02-07T03:36:11.808Z,58.00
2023-02-07T03:37:11.789Z,55.50
2023-02-07T03:38:11.761Z,54.10
2023-02-07T03:39:11.751Z,58.40
2023-02-07T03:40:11.734Z,56.70
2023-02-07T03:41:11.754Z,57.10
2023-02-07T03:42:11.702Z,55.20
2023-02-07T03:43:11.712Z,56.90
2023-02-07T03:44:11.702Z,56.60
2023-02-07T03:45:11.682Z,53.90
2023-02-07T03:46:11.696Z,54.80
2023-02-07T03:47:11.658Z,58.90
2023-02-07T03:48:11.646Z,60.50
2023-02-07T03:49:11.632Z,59.90
2023-02-07T03:50:11.603Z,57.60
2023-02-07T03:51:11.606Z,60.80
2023-02-07T03:52:11.594Z,60.60
2023-02-07T03:53:11.584Z,58.30
2023-02-07T03:54:11.572Z,60.40
2023-02-07T03:55:11.571Z,63.10
2023-02-07T03:56:11.545Z,61.20
2023-02-07T03:57:11.769Z,60.20
2023-02-07T03:58:11.516Z,59.70
2023-02-07T03:59:11.495Z,63.00
2023-02-07T04:00:11.526Z,64.70
2023-02-07T04:01:11.522Z,61.60
2023-02-07T04:02:11.494Z,63.50
2023-02-07T04:03:11.469Z,61.80
2023-02-07T04:04:11.475Z,64.20
2023-02-07T04:05:11.442Z,63.30
2023-02-07T04:06:11.407Z,65.50
2023-02-07T04:07:11.417Z,66.10
2023-02-07T04:08:11.402Z,65.40
2023-02-07T04:09:11.935Z,66.80
2023-02-07T04:10:11.380Z,64.90
2023-02-07T04:11:11.366Z,65.90
2023-02-07T04:12:11.342Z,70.70
2023-02-07T04:13:11.339Z,73.40
2023-02-07T04:14:11.329Z,72.90
2023-02-07T04:15:11.310Z,70.20
2023-02-07T04:16:11.324Z,69.50
2023-02-07T04:17:11.289Z,66.30
2023-02-07T04:18:11.278Z,68.10
2023-02-07T04:19:11.263Z,65.70
2023-02-07T04:20:11.241Z,67.50
2023-02-07T04:21:11.241Z,67.00
2023-02-07T04:22:11.260Z,67.20
2023-02-07T04:23:11.218Z,69.80
2023-02-07T04:24:11.194Z,66.70
2023-02-07T04:25:11.215Z,68.20
2023-02-07T04:26:11.169Z,68.10
2023-02-07T04:27:11.161Z,64.60
2023-02-07T04:28:11.226Z,67.20
2023-02-07T04:29:11.137Z,67.90
2023-02-07T04:30:11.121Z,68.50
2023-02-07T04:31:11.110Z,66.20
2023-02-07T04:32:11.103Z,67.90
2023-02-07T04:33:11.094Z,70.40
2023-02-07T04:34:11.327Z,68.00
2023-02-07T04:35:11.057Z,69.20
2023-02-07T04:36:11.037Z,68.70
2023-02-07T04:37:11.037Z,69.30
2023-02-07T04:38:11.035Z,70.00
2023-02-07T04:39:11.011Z,70.60
2023-02-07T04:40:10.997Z,70.10
2023-02-07T04:41:10.986Z,67.60
2023-02-07T04:42:10.965Z,68.70
2023-02-07T04:43:10.979Z,69.40
2023-02-07T04:44:10.935Z,67.90
2023-02-07T04:45:10.941Z,70.60
2023-02-07T04:46:10.937Z,68.10
2023-02-07T04:47:10.912Z,66.80
2023-02-07T04:48:10.896Z,66.40
2023-02-07T04:49:10.891Z,66.80
2023-02-07T04:50:10.865Z,68.40
2023-02-07T04:51:10.853Z,64.60
2023-02-07T04:52:10.836Z,67.60
2023-02-07T04:53:10.846Z,67.00
2023-02-07T04:54:10.818Z,63.80
2023-02-07T04:55:10.814Z,66.00
2023-02-07T04:56:10.810Z,64.50
2023-02-07T04:57:10.787Z,65.40
2023-02-07T04:58:10.780Z,68.70
2023-02-07T04:59:10.780Z,69.70
2023-02-07T05:00:10.781Z,68.30
2023-02-07T05:01:10.734Z,66.60
2023-02-07T05:02:10.721Z,69.70
2023-02-07T05:03:10.744Z,66.50
2023-02-07T05:04:10.745Z,65.60
2023-02-07T05:05:10.699Z,66.20
2023-02-07T05:06:10.671Z,68.60
2023-02-07T05:07:10.687Z,66.80
2023-02-07T05:08:10.667Z,67.90
2023-02-07T05:09:10.639Z,64.10
2023-02-07T05:10:10.622Z,65.00
2023-02-07T05:11:10.613Z,63.10
2023-02-07T05:12:10.607Z,63.00
2023-02-07T05:13:10.995Z,61.60
2023-02-07T05:14:10.574Z,60.30
2023-02-07T05:15:10.570Z,60.10
2023-02-07T05:16:10.548Z,61.70
2023-02-07T05:17:10.544Z,62.20
2023-02-07T05:18:10.534Z,63.60
2023-02-07T05:19:10.517Z,64.90
2023-02-07T05:20:10.514Z,63.10
2023-02-07T05:21:10.504Z,62.70
2023-02-07T05:22:10.474Z,65.30
2023-02-07T05:23:10.494Z,62.70
2023-02-07T05:24:10.465Z,65.40
2023-02-07T05:25:10.457Z,65.00
2023-02-07T05:26:10.420Z,65.80
2023-02-07T05:27:10.415Z,66.60
2023-02-07T05:28:10.425Z,67.90
2023-02-07T05:29:10.414Z,64.50
2023-02-07T05:30:10.365Z,71.30
2023-02-07T05:31:10.461Z,69.30
2023-02-07T05:32:10.361Z,69.90
2023-02-07T05:33:10.365Z,67.70
2023-02-07T05:34:10.341Z,69.40
2023-02-07T05:35:11.318Z,71.40
2023-02-07T05:36:10.313Z,69.80
2023-02-07T05:37:10.313Z,69.30
2023-02-07T05:38:10.294Z,68.20
2023-02-07T05:39:10.296Z,69.20
2023-02-07T05:40:12.901Z,69.40
2023-02-07T05:41:26.431Z,70.90
2023-02-07T05:42:13.389Z,68.60
2023-02-07T05:43:13.909Z,69.40
2023-02-07T05:44:12.842Z,69.20
2023-02-07T05:51:08.822Z,69.80
2023-02-07T05:52:10.830Z,70.90
2023-02-07T05:53:08.785Z,69.50
2023-02-07T05:54:08.773Z,70.90
2023-02-07T05:55:08.761Z,72.90
2023-02-07T05:56:09.722Z,71.70
2023-02-07T05:57:08.744Z,72.00
2023-02-07T05:58:09.692Z,69.90
2023-02-07T05:59:09.660Z,70.40
2023-02-07T06:00:09.663Z,70.80
2023-02-07T06:01:09.647Z,69.60
2023-02-07T06:02:09.641Z,71.50
2023-02-07T06:03:08.693Z,70.00
2023-02-07T06:04:08.660Z,70.30
2023-02-07T06:05:08.638Z,69.30
2023-02-07T06:06:08.636Z,71.70
2023-02-07T06:07:08.634Z,70.20
2023-02-07T06:08:08.616Z,74.00
2023-02-07T06:09:08.605Z,75.40
2023-02-07T06:10:08.581Z,75.50
2023-02-07T06:11:08.560Z,78.30
2023-02-07T06:12:08.561Z,79.60
2023-02-07T06:13:08.544Z,74.10
2023-02-07T06:14:08.529Z,76.60
2023-02-07T06:15:08.523Z,74.80
2023-02-07T06:16:08.553Z,77.50
2023-02-07T06:17:08.507Z,77.90
2023-02-07T06:18:09.432Z,79.80
2023-02-07T06:19:08.463Z,78.60
2023-02-07T06:20:09.464Z,79.20
2023-02-07T06:21:08.444Z,80.80
2023-02-07T06:22:08.430Z,80.20
2023-02-07T06:23:09.383Z,78.50
2023-02-07T06:24:09.352Z,80.00
2023-02-07T06:25:08.412Z,78.80
2023-02-07T06:26:09.330Z,81.50
2023-02-07T06:27:09.599Z,82.50
2023-02-07T06:28:08.379Z,80.90
2023-02-07T06:29:08.342Z,82.50
2023-02-07T06:30:08.339Z,81.20
2023-02-07T06:31:08.403Z,78.80
2023-02-07T06:32:08.300Z,79.70
2023-02-07T06:33:08.308Z,81.70
2023-02-07T06:34:08.297Z,82.00
2023-02-07T06:35:08.292Z,81.80
2023-02-07T06:36:08.270Z,78.00
2023-02-07T06:37:08.241Z,83.90
2023-02-07T06:38:08.233Z,80.20
2023-02-07T06:39:08.229Z,80.40
2023-02-07T06:40:08.210Z,83.70
2023-02-07T06:41:08.197Z,84.80
2023-02-07T06:42:08.191Z,83.20
2023-02-07T06:43:09.102Z,83.60
2023-02-07T06:44:08.337Z,84.00
2023-02-07T06:45:08.147Z,85.80
2023-02-07T06:46:08.173Z,86.40
2023-02-07T06:47:08.122Z,86.40
2023-02-07T06:48:08.149Z,88.40
2023-02-07T06:49:08.237Z,83.50
2023-02-07T06:50:09.550Z,84.10
2023-02-07T06:51:08.877Z,82.70
2023-02-07T06:52:08.079Z,85.50
2023-02-07T06:53:08.086Z,87.60
2023-02-07T06:54:08.036Z,84.00
2023-02-07T06:55:08.031Z,82.10
2023-02-07T06:56:08.005Z,80.70
2023-02-07T06:57:07.994Z,79.60
2023-02-07T06:58:07.985Z,81.60
2023-02-07T06:59:08.009Z,82.40
2023-02-07T07:00:07.949Z,84.10
2023-02-07T07:01:07.949Z,84.80
2023-02-07T07:02:07.929Z,85.40
2023-02-07T07:03:07.931Z,86.80
2023-02-07T07:04:08.179Z,90.50
2023-02-07T07:05:07.899Z,87.20
2023-02-07T07:06:07.889Z,86.40
2023-02-07T07:07:07.881Z,90.60
2023-02-07T07:08:07.866Z,85.40
2023-02-07T07:09:07.865Z,85.00
2023-02-07T07:10:07.882Z,84.20
2023-02-07T07:11:07.824Z,86.50
2023-02-07T07:12:07.811Z,85.90
2023-02-07T07:13:07.801Z,89.10
2023-02-07T07:14:07.829Z,90.60
2023-02-07T07:15:08.743Z,86.90
2023-02-07T07:16:07.817Z,83.30
2023-02-07T07:17:07.748Z,83.00
2023-02-07T07:18:08.015Z,85.50
2023-02-07T07:19:07.751Z,88.70
2023-02-07T07:20:07.771Z,84.80
2023-02-07T07:21:07.723Z,86.00
2023-02-07T07:22:07.691Z,85.50
2023-02-07T07:23:07.678Z,84.60
2023-02-07T07:24:07.699Z,86.10
2023-02-07T07:25:07.653Z,81.30
2023-02-07T07:26:07.637Z,79.20
2023-02-07T07:27:07.635Z,78.00
2023-02-07T07:28:07.638Z,77.90
2023-02-07T07:29:07.622Z,79.10
2023-02-07T07:30:09.558Z,76.80
2023-02-07T07:31:07.647Z,78.90
2023-02-07T07:32:07.580Z,80.00
2023-02-07T07:33:07.559Z,79.30
2023-02-07T07:34:07.558Z,79.50
2023-02-07T07:35:08.357Z,78.30
2023-02-07T07:36:08.906Z,79.90
2023-02-07T07:37:07.504Z,77.20
2023-02-07T07:38:07.486Z,77.40
2023-02-07T07:39:07.495Z,80.10
2023-02-07T07:40:07.494Z,80.30
2023-02-07T07:41:07.474Z,81.90
2023-02-07T07:42:09.413Z,83.10
2023-02-07T07:43:07.433Z,85.00
2023-02-07T07:44:07.438Z,84.60
2023-02-07T07:45:07.402Z,86.40
2023-02-07T07:46:07.416Z,88.70
2023-02-07T07:47:07.372Z,86.60
2023-02-07T07:48:07.399Z,85.80
2023-02-07T07:49:07.365Z,85.80
2023-02-07T07:50:07.334Z,90.70
2023-02-07T07:51:09.301Z,87.50
2023-02-07T07:52:07.312Z,91.70
2023-02-07T07:53:08.253Z,92.40
2023-02-07T07:54:07.304Z,87.90
2023-02-07T07:55:07.276Z,89.60
2023-02-07T07:56:07.265Z,91.90
2023-02-07T07:57:07.252Z,91.20
2023-02-07T07:58:07.225Z,88.90
2023-02-07T07:59:12.187Z,89.00
2023-02-07T08:00:08.204Z,88.90
2023-02-07T08:01:07.296Z,87.50
2023-02-07T08:02:07.171Z,88.90
2023-02-07T08:03:07.172Z,85.70
2023-02-07T08:04:07.211Z,85.90
2023-02-07T08:05:07.157Z,88.40
2023-02-07T08:06:07.123Z,86.90
2023-02-07T08:07:07.112Z,89.90
2023-02-07T08:08:07.113Z,88.10
2023-02-07T08:09:07.399Z,89.30
2023-02-07T08:10:07.074Z,91.60
2023-02-07T08:11:07.073Z,92.70
2023-02-07T08:12:07.052Z,93.20
2023-02-07T08:13:07.050Z,90.90
2023-02-07T08:14:07.041Z,191.80
2023-02-07T08:15:07.040Z,135.50
2023-02-07T08:16:07.037Z,101.70
2023-02-07T08:17:06.994Z,97.60
2023-02-07T08:18:06.977Z,98.50
2023-02-07T08:19:06.965Z,97.20
2023-02-07T08:20:06.967Z,96.50
2023-02-07T08:21:06.944Z,94.80
2023-02-07T08:22:06.926Z,91.60
2023-02-07T08:23:06.927Z,89.00
2023-02-07T08:24:06.920Z,95.60
2023-02-07T08:25:08.433Z,92.90
2023-02-07T08:26:06.875Z,93.80
2023-02-07T08:27:06.878Z,95.80
2023-02-07T08:28:06.863Z,93.90
2023-02-07T08:29:06.877Z,93.40
2023-02-07T08:30:06.837Z,92.70
2023-02-07T08:31:07.122Z,92.40
2023-02-07T08:32:06.875Z,88.70
2023-02-07T08:33:06.826Z,88.90
2023-02-07T08:34:06.777Z,86.40
2023-02-07T08:35:06.777Z,89.60
2023-02-07T08:36:07.278Z,91.20
2023-02-07T08:37:06.750Z,92.60
2023-02-07T08:38:06.726Z,94.60
2023-02-07T08:39:06.871Z,93.60
2023-02-07T08:40:06.727Z,96.50
2023-02-07T08:41:06.691Z,95.00
2023-02-07T08:42:06.701Z,97.50
2023-02-07T08:43:06.682Z,95.10
2023-02-07T08:44:06.670Z,93.70
2023-02-07T08:45:06.755Z,91.90
2023-02-07T08:46:06.817Z,94.30
2023-02-07T08:47:06.617Z,96.70
2023-02-07T08:48:06.602Z,97.00
2023-02-07T08:49:06.577Z,97.10
2023-02-07T08:50:06.580Z,97.90
2023-02-07T08:51:06.562Z,94.30
2023-02-07T08:52:06.549Z,94.10
2023-02-07T08:53:06.540Z,94.20
2023-02-07T08:54:06.529Z,93.50
2023-02-07T08:55:06.549Z,93.00
2023-02-07T08:56:06.503Z,92.50
2023-02-07T08:57:06.488Z,91.90
2023-02-07T08:58:06.475Z,94.70
2023-02-07T08:59:06.471Z,89.50
2023-02-07T09:00:06.453Z,91.40
2023-02-07T09:01:07.483Z,88.30
2023-02-07T09:02:06.505Z,91.70
2023-02-07T09:03:07.369Z,90.10
2023-02-07T09:04:06.397Z,90.10
2023-02-07T09:05:06.391Z,91.80
2023-02-07T09:06:06.377Z,87.60
2023-02-07T09:07:06.360Z,87.30
2023-02-07T09:08:06.350Z,87.80
2023-02-07T09:09:06.341Z,86.60
2023-02-07T09:10:06.324Z,85.10
2023-02-07T09:11:09.559Z,88.00
2023-02-07T09:12:06.292Z,87.20
2023-02-07T09:13:06.301Z,86.10
2023-02-07T09:14:06.275Z,88.00
2023-02-07T09:15:06.283Z,86.00
2023-02-07T09:16:06.248Z,85.90
2023-02-07T09:17:06.235Z,84.20
2023-02-07T09:18:06.214Z,83.90
2023-02-07T09:19:07.022Z,85.10
2023-02-07T09:20:06.445Z,84.50
2023-02-07T09:21:06.191Z,86.60
2023-02-07T09:22:06.183Z,85.80
2023-02-07T09:23:06.192Z,85.40
2023-02-07T09:24:06.407Z,88.10
2023-02-07T09:25:06.141Z,84.40
2023-02-07T09:26:06.143Z,85.40
2023-02-07T09:27:06.134Z,84.90
2023-02-07T09:28:06.150Z,84.80
2023-02-07T09:29:06.105Z,83.50
2023-02-07T09:30:06.074Z,84.40
2023-02-07T09:31:06.152Z,81.60
2023-02-07T09:32:06.045Z,79.90
2023-02-07T09:33:06.031Z,82.70
2023-02-07T09:34:06.025Z,83.30
2023-02-07T09:35:06.005Z,80.40
2023-02-07T09:36:06.240Z,82.10
2023-02-07T09:37:07.976Z,83.90
2023-02-07T09:38:05.958Z,85.00
2023-02-07T09:39:05.954Z,84.40
2023-02-07T09:40:05.957Z,83.80
2023-02-07T09:41:05.935Z,85.20
2023-02-07T09:42:06.205Z,83.20
2023-02-07T09:43:06.011Z,82.00
2023-02-07T09:44:06.026Z,78.90
2023-02-07T09:45:06.004Z,78.70
2023-02-07T09:46:05.892Z,79.60
2023-02-07T09:47:05.860Z,80.70
2023-02-07T09:48:05.857Z,82.10
2023-02-07T09:49:05.839Z,80.50
2023-02-07T09:50:05.815Z,78.60
2023-02-07T09:51:06.873Z,77.90
2023-02-07T09:52:07.766Z,77.00
2023-02-07T09:53:05.850Z,80.30
2023-02-07T09:54:05.778Z,80.90
2023-02-07T09:55:05.778Z,81.80
2023-02-07T09:56:06.705Z,83.10
2023-02-07T09:57:05.746Z,84.50
2023-02-07T09:58:05.988Z,91.80
2023-02-07T09:59:05.697Z,90.10
2023-02-07T10:00:05.678Z,92.80
2023-02-07T10:01:05.703Z,99.90
2023-02-07T10:02:05.661Z,98.00
2023-02-07T10:03:05.687Z,97.90
2023-02-07T10:04:05.658Z,98.70
2023-02-07T10:05:05.620Z,96.80
2023-02-07T10:06:17.539Z,98.30
2023-02-07T10:07:06.588Z,98.60
2023-02-07T10:08:05.579Z,98.30
2023-02-07T10:09:05.567Z,101.60
2023-02-07T10:10:05.566Z,103.70
2023-02-07T10:11:06.001Z,105.50
2023-02-07T10:12:05.547Z,108.20
2023-02-07T10:13:07.439Z,100.60
2023-02-07T10:14:05.496Z,105.20
2023-02-07T10:15:05.491Z,104.70
2023-02-07T10:16:05.564Z,107.50
2023-02-07T10:17:05.487Z,101.00
2023-02-07T10:18:05.445Z,98.90
2023-02-07T10:19:05.436Z,102.00
2023-02-07T10:20:05.447Z,102.50
2023-02-07T10:21:06.621Z,102.40
2023-02-07T10:22:06.376Z,102.20
2023-02-07T10:23:05.386Z,101.30
2023-02-07T10:24:05.375Z,97.10
2023-02-07T10:25:05.367Z,98.90
2023-02-07T10:26:05.390Z,96.10
2023-02-07T10:27:05.373Z,94.90
2023-02-07T10:28:05.385Z,93.10
2023-02-07T10:29:05.315Z,94.60
2023-02-07T10:30:05.298Z,94.20
2023-02-07T10:31:05.403Z,92.00
2023-02-07T10:32:05.271Z,89.10
2023-02-07T10:33:05.257Z,89.70
2023-02-07T10:34:05.248Z,88.90
2023-02-07T10:35:05.229Z,87.90
2023-02-07T10:36:05.229Z,91.60
2023-02-07T10:37:05.212Z,90.10
2023-02-07T10:38:05.201Z,88.40
2023-02-07T10:39:09.477Z,86.90
2023-02-07T10:40:05.184Z,88.50
2023-02-07T10:41:06.160Z,86.60
2023-02-07T10:42:05.149Z,86.90
2023-02-07T10:43:05.380Z,88.40
2023-02-07T10:44:05.132Z,85.80
2023-02-07T10:45:05.122Z,79.60
2023-02-07T10:46:06.752Z,77.60
2023-02-07T10:47:05.091Z,78.60
2023-02-07T10:48:06.032Z,79.90
2023-02-07T10:49:05.063Z,80.10
2023-02-07T10:50:05.051Z,84.30
2023-02-07T10:51:05.052Z,85.00
2023-02-07T10:52:05.033Z,78.60
2023-02-07T10:53:05.012Z,75.70
2023-02-07T10:54:05.007Z,79.90
2023-02-07T10:55:04.986Z,76.10
2023-02-07T10:56:04.992Z,72.50
2023-02-07T10:57:04.960Z,74.70
2023-02-07T10:58:17.729Z,73.00
2023-02-07T10:59:05.944Z,71.70
2023-02-07T11:00:04.929Z,75.90
2023-02-07T11:01:04.960Z,76.20
2023-02-07T11:02:04.945Z,73.50
2023-02-07T11:03:04.906Z,73.80
2023-02-07T11:04:04.892Z,77.30
2023-02-07T11:05:04.860Z,73.30
2023-02-07T11:06:06.873Z,76.40
2023-02-07T11:07:04.865Z,78.00
2023-02-07T11:08:04.834Z,73.90
2023-02-07T11:09:04.814Z,76.40
2023-02-07T11:10:04.815Z,73.30
2023-02-07T11:11:04.816Z,69.60
2023-02-07T11:12:04.825Z,78.80
2023-02-07T11:13:04.758Z,78.20
2023-02-07T11:14:04.764Z,82.70
2023-02-07T11:15:04.737Z,82.50
2023-02-07T11:16:04.839Z,83.90
2023-02-07T11:17:04.724Z,82.40
2023-02-07T11:18:04.723Z,80.20
2023-02-07T11:19:04.699Z,81.70
2023-02-07T11:20:04.685Z,82.40
2023-02-07T11:21:04.666Z,84.20
2023-02-07T11:22:04.659Z,80.40
2023-02-07T11:23:04.635Z,80.80
2023-02-07T11:24:04.632Z,80.70
2023-02-07T11:25:04.617Z,83.30
2023-02-07T11:26:04.606Z,82.10
2023-02-07T11:27:04.608Z,85.60
2023-02-07T11:28:04.627Z,82.90
2023-02-07T11:29:05.732Z,82.30
2023-02-07T11:30:04.557Z,82.40
2023-02-07T11:31:05.597Z,83.20
2023-02-07T11:32:04.559Z,83.30
2023-02-07T11:33:04.524Z,81.30
2023-02-07T11:34:05.481Z,81.40
2023-02-07T11:35:04.501Z,82.10
2023-02-07T11:36:05.459Z,80.50
2023-02-07T11:37:04.468Z,83.10
2023-02-07T11:38:04.877Z,84.50
2023-02-07T11:39:04.440Z,82.90
2023-02-07T11:40:04.425Z,84.10
2023-02-07T11:41:04.419Z,86.20
2023-02-07T11:42:04.411Z,80.60
2023-02-07T11:43:04.381Z,82.20
2023-02-07T11:44:04.381Z,84.20
2023-02-07T11:45:04.384Z,82.80
2023-02-07T11:46:04.374Z,80.40
2023-02-07T11:47:04.361Z,81.50
2023-02-07T11:48:04.328Z,78.60
2023-02-07T11:49:04.369Z,84.60
2023-02-07T11:50:04.337Z,84.50
2023-02-07T11:51:04.330Z,82.60
2023-02-07T11:52:04.340Z,83.30
2023-02-07T11:53:04.274Z,83.10
2023-02-07T11:54:04.272Z,80.80
2023-02-07T11:55:04.235Z,83.70
2023-02-07T11:56:04.252Z,87.00
2023-02-07T11:57:04.333Z,85.50
2023-02-07T11:58:04.225Z,85.30
2023-02-07T11:59:04.216Z,85.00
2023-02-07T12:00:04.192Z,86.20
2023-02-07T12:01:04.186Z,86.10
2023-02-07T12:02:04.241Z,84.80
2023-02-07T12:03:04.148Z,80.50
2023-02-07T12:04:04.139Z,80.10
2023-02-07T12:05:04.124Z,81.50
2023-02-07T12:06:04.127Z,80.50
2023-02-07T12:07:04.114Z,82.50
2023-02-07T12:08:04.108Z,81.30
2023-02-07T12:09:04.071Z,84.60
2023-02-07T12:10:04.152Z,86.00
2023-02-07T12:11:04.051Z,86.30
2023-02-07T12:12:04.283Z,85.60
2023-02-07T12:13:04.048Z,83.90
2023-02-07T12:14:04.217Z,82.70
2023-02-07T12:15:04.235Z,83.10
2023-02-07T12:16:06.042Z,82.30
2023-02-07T12:17:04.005Z,83.20
2023-02-07T12:18:03.966Z,79.40
2023-02-07T12:19:03.947Z,86.10
2023-02-07T12:20:04.880Z,83.00
2023-02-07T12:21:03.919Z,82.80
2023-02-07T12:22:03.914Z,84.30
2023-02-07T12:23:27.971Z,82.00
2023-02-07T12:24:04.903Z,84.50
2023-02-07T12:25:03.874Z,78.90
2023-02-07T12:26:03.861Z,80.60
2023-02-07T12:27:03.849Z,82.20
2023-02-07T12:28:03.903Z,86.20
2023-02-07T12:29:12.802Z,81.10
2023-02-07T12:30:04.809Z,82.20
2023-02-07T12:31:06.172Z,84.20
2023-02-07T12:32:03.970Z,81.40
2023-02-07T12:33:03.787Z,83.20
2023-02-07T12:34:03.765Z,79.90
2023-02-07T12:35:03.760Z,82.00
2023-02-07T12:36:04.010Z,83.30
2023-02-07T12:37:05.310Z,84.70
2023-02-07T12:38:03.714Z,81.50
2023-02-07T12:39:04.554Z,85.30
2023-02-07T12:40:03.690Z,85.70
2023-02-07T12:41:03.678Z,84.40
2023-02-07T12:42:03.665Z,85.80
2023-02-07T12:43:03.682Z,84.00
2023-02-07T12:44:06.206Z,81.80
2023-02-07T12:45:03.658Z,81.40
2023-02-07T12:46:03.676Z,80.40
2023-02-07T12:47:04.568Z,80.60
2023-02-07T12:48:03.606Z,83.00
2023-02-07T12:49:05.056Z,86.10
2023-02-07T12:50:03.575Z,84.30
2023-02-07T12:51:04.506Z,83.10
2023-02-07T12:52:03.928Z,80.70
2023-02-07T12:53:03.538Z,80.70
2023-02-07T12:54:03.540Z,82.40
2023-02-07T12:55:03.500Z,84.80
2023-02-07T12:56:03.503Z,84.80
2023-02-07T12:57:03.473Z,84.30
2023-02-07T12:58:03.474Z,85.50